Time;durP1;ratioP1;P1;durP2;ratioP2;P2;SDS_P1;SDS_P2;PMS_P1;PMS_P2;Temp;Humidity;BMP_temperature;BMP_pressure;BME280_temperature;BME280_humidity;BME280_pressure;Samples;Min_cycle;Max_cycle;Signal;HPM_P1;HPM_P2
2023/11/11 00:00:24;;;;;;;0.90;0.50;;;;;;;9.25;92.52;96451.22;4195163;28;20674;-87
2023/11/11 00:02:27;;;;;;;2.78;0.90;;;;;;;9.14;92.61;96444.34;4190444;28;20212;-87
2023/11/11 00:04:31;;;;;;;1.35;0.80;;;;;;;9.09;93.90;96454.31;4175818;28;20210;-87
2023/11/11 00:06:34;;;;;;;1.55;0.57;;;;;;;9.03;93.58;96444.47;4191797;28;20205;-88
2023/11/11 00:08:38;;;;;;;2.10;0.90;;;;;;;9.02;93.26;96453.25;4176911;28;20652;-87
2023/11/11 00:10:41;;;;;;;1.50;0.50;;;;;;;8.94;93.51;96452.25;4169342;28;20207;-87
2023/11/11 00:12:47;;;;;;;2.15;0.82;;;;;;;8.94;92.67;96453.09;4209281;28;20658;-87
2023/11/11 00:14:51;;;;;;;1.67;0.55;;;;;;;8.99;93.39;96444.88;4188512;28;20671;-87
2023/11/11 00:16:54;;;;;;;3.90;0.65;;;;;;;8.90;93.70;96450.06;4193800;28;20232;-87
2023/11/11 00:18:57;;;;;;;1.08;0.60;;;;;;;8.88;92.98;96441.59;4174565;28;20289;-87
2023/11/11 00:21:01;;;;;;;1.58;0.90;;;;;;;8.84;92.97;96440.19;4185067;28;20208;-87
2023/11/11 00:23:05;;;;;;;1.60;0.63;;;;;;;8.84;92.88;96446.25;4204767;28;20254;-87
2023/11/11 00:25:08;;;;;;;1.40;0.60;;;;;;;8.79;94.15;96442.41;4193352;28;20216;-87
2023/11/11 00:27:12;;;;;;;1.02;0.55;;;;;;;8.75;93.25;96434.06;4193385;28;20202;-87
2023/11/11 00:29:17;;;;;;;1.02;0.60;;;;;;;8.73;93.41;96433.34;4174829;28;20209;-87
2023/11/11 00:31:20;;;;;;;1.60;0.55;;;;;;;8.73;93.17;96440.34;4197439;28;21020;-87
2023/11/11 00:33:25;;;;;;;1.88;0.93;;;;;;;8.77;94.72;96433.91;4190236;28;20262;-87
2023/11/11 00:35:28;;;;;;;2.80;0.50;;;;;;;8.77;94.43;96444.31;4176000;28;20238;-87
2023/11/11 00:37:31;;;;;;;1.17;0.65;;;;;;;8.74;93.74;96436.78;4199497;28;20197;-87
2023/11/11 00:39:34;;;;;;;1.65;0.60;;;;;;;8.78;94.87;96438.16;4178519;28;20567;-87
2023/11/11 00:41:38;;;;;;;1.70;0.60;;;;;;;8.77;93.71;96441.72;4192549;28;20212;-87
2023/11/11 00:43:41;;;;;;;1.02;0.90;;;;;;;8.75;93.72;96441.84;4178470;28;20206;-87
2023/11/11 00:45:46;;;;;;;1.20;0.60;;;;;;;8.76;95.27;96440.06;4175472;28;20228;-87
2023/11/11 00:47:49;;;;;;;1.48;0.65;;;;;;;8.73;93.79;96443.75;4187380;28;20735;-87
2023/11/11 00:49:53;;;;;;;0.90;0.60;;;;;;;8.77;94.92;96447.72;4202666;28;20219;-87
2023/11/11 00:51:56;;;;;;;1.35;0.63;;;;;;;8.73;94.49;96443.75;4167381;28;20301;-87
2023/11/11 00:54:00;;;;;;;1.45;0.50;;;;;;;8.78;94.57;96453.72;4165485;28;20867;-86
2023/11/11 00:56:03;;;;;;;0.90;0.60;;;;;;;8.75;94.48;96447.06;4197518;28;20210;-87
2023/11/11 00:58:07;;;;;;;1.67;0.65;;;;;;;8.74;94.86;96452.38;4182890;28;20637;-87
2023/11/11 01:00:11;;;;;;;1.15;0.52;;;;;;;8.71;95.63;96447.44;4176045;28;20304;-87
2023/11/11 01:02:15;;;;;;;1.15;0.50;;;;;;;8.66;96.59;96447.00;4180512;28;20217;-87
2023/11/11 01:04:19;;;;;;;1.05;0.63;;;;;;;8.64;95.80;96451.53;4185135;28;20200;-87
2023/11/11 01:06:22;;;;;;;0.90;0.50;;;;;;;8.65;96.36;96455.78;4169974;28;20220;-87
2023/11/11 01:08:25;;;;;;;1.10;0.47;;;;;;;8.63;95.84;96445.53;4173577;28;20212;-87
2023/11/11 01:10:34;;;;;;;1.00;0.60;;;;;;;8.67;95.99;96438.25;4184618;28;20289;-86
2023/11/11 01:12:38;;;;;;;0.90;0.50;;;;;;;8.67;96.45;96459.06;4183111;28;20202;-87
2023/11/11 01:14:43;;;;;;;2.97;0.65;;;;;;;8.66;97.84;96454.81;4187222;28;20316;-87
2023/11/11 01:16:46;;;;;;;1.00;0.60;;;;;;;8.63;98.12;96455.06;4202228;28;20418;-87
2023/11/11 01:18:52;;;;;;;0.80;0.40;;;;;;;8.57;99.56;96455.63;4200444;28;20215;-87
2023/11/11 01:20:54;;;;;;;0.70;0.50;;;;;;;8.57;98.85;96468.63;4185766;28;20242;-87
2023/11/11 01:22:57;;;;;;;0.90;0.60;;;;;;;8.53;99.20;96451.63;4167892;28;20295;-87
2023/11/11 01:25:01;;;;;;;0.80;0.50;;;;;;;8.54;99.54;96463.69;4202820;28;20225;-87
2023/11/11 01:27:04;;;;;;;1.17;0.68;;;;;;;8.43;99.79;96449.97;4197715;28;20204;-87
2023/11/11 01:29:08;;;;;;;0.90;0.57;;;;;;;8.42;99.45;96448.31;4171280;28;20267;-87
2023/11/11 01:31:10;;;;;;;1.15;0.60;;;;;;;8.43;100.00;96450.78;4205514;28;20724;-87
2023/11/11 01:33:13;;;;;;;1.10;0.60;;;;;;;8.42;100.00;96464.75;4176784;28;20233;-87
2023/11/11 01:35:18;;;;;;;2.70;0.80;;;;;;;8.40;99.64;96435.47;4202998;28;20225;-87
2023/11/11 01:37:22;;;;;;;1.00;0.50;;;;;;;8.37;99.50;96459.09;4182833;28;20211;-87
2023/11/11 01:39:25;;;;;;;0.80;0.50;;;;;;;8.38;100.00;96452.97;4178938;28;20206;-87
2023/11/11 01:41:28;;;;;;;1.17;0.70;;;;;;;8.40;100.00;96458.03;4175163;28;20210;-86
2023/11/11 01:43:32;;;;;;;1.58;0.80;;;;;;;8.36;100.00;96441.03;4179353;28;20293;-87
2023/11/11 01:45:36;;;;;;;1.00;0.70;;;;;;;8.33;100.00;96460.34;4185768;28;20202;-86
2023/11/11 01:47:39;;;;;;;1.42;0.73;;;;;;;8.36;100.00;96472.22;4192454;28;20244;-87
2023/11/11 01:49:43;;;;;;;1.23;0.70;;;;;;;8.37;100.00;96472.06;4190519;28;20215;-87
2023/11/11 01:51:48;;;;;;;0.80;0.60;;;;;;;8.41;100.00;96467.47;4209916;28;20213;-86
2023/11/11 01:53:51;;;;;;;0.88;0.57;;;;;;;8.45;99.82;96461.88;4193753;28;20216;-86
2023/11/11 01:55:54;;;;;;;0.88;0.40;;;;;;;8.43;99.21;96461.16;4169605;28;20203;-87
2023/11/11 01:57:58;;;;;;;1.50;0.50;;;;;;;8.49;97.38;96471.03;4209801;28;20208;-86
2023/11/11 02:00:06;;;;;;;1.13;0.70;;;;;;;8.51;97.22;96474.34;4188680;28;20288;-86
2023/11/11 02:02:09;;;;;;;0.88;0.68;;;;;;;8.54;96.92;96467.09;4187418;28;20213;-86
2023/11/11 02:04:14;;;;;;;1.25;0.70;;;;;;;8.61;95.92;96452.59;4192721;28;20205;-86
2023/11/11 02:06:17;;;;;;;2.10;0.60;;;;;;;8.67;95.39;96480.66;4186700;28;20206;-87
2023/11/11 02:08:24;;;;;;;0.70;0.40;;;;;;;8.55;94.15;96468.75;4201296;28;20229;-87
2023/11/11 02:10:27;;;;;;;0.80;0.40;;;;;;;8.57;94.64;96473.81;4178420;28;20216;-86
2023/11/11 02:12:32;;;;;;;0.70;0.40;;;;;;;8.59;95.46;96472.72;4193212;28;20570;-87
2023/11/11 02:14:36;;;;;;;0.70;0.50;;;;;;;8.64;94.81;96477.50;4186418;28;20221;-86
2023/11/11 02:16:40;;;;;;;1.30;0.50;;;;;;;8.68;95.07;96489.28;4176889;28;21189;-86
2023/11/11 02:18:43;;;;;;;1.10;0.50;;;;;;;8.72;95.00;96483.69;4173475;28;20671;-87
2023/11/11 02:20:49;;;;;;;1.00;0.47;;;;;;;8.73;94.35;96480.13;4176106;28;20664;-86
2023/11/11 02:22:52;;;;;;;1.17;0.70;;;;;;;8.77;94.03;96485.91;4192310;28;20246;-86
2023/11/11 02:24:59;;;;;;;1.00;0.65;;;;;;;8.73;95.07;96490.53;4188734;28;20285;-87
2023/11/11 02:27:05;;;;;;;0.80;0.45;;;;;;;8.73;93.61;96492.31;4190854;28;20228;-86
2023/11/11 02:29:09;;;;;;;0.70;0.45;;;;;;;8.76;94.20;96479.03;4172931;28;20683;-86
2023/11/11 02:31:12;;;;;;;1.17;0.55;;;;;;;8.74;94.52;96489.56;4173487;28;20775;-86
2023/11/11 02:33:15;;;;;;;0.90;0.50;;;;;;;8.78;94.81;96508.31;4186166;28;20210;-86
2023/11/11 02:35:19;;;;;;;0.80;0.55;;;;;;;8.74;94.40;96492.16;4189929;28;20224;-86
2023/11/11 02:37:22;;;;;;;0.90;0.50;;;;;;;8.76;94.85;96494.63;4205550;28;20295;-86
2023/11/11 02:39:25;;;;;;;1.10;0.50;;;;;;;8.75;94.22;96491.22;4191237;28;20204;-86
2023/11/11 02:41:29;;;;;;;0.70;0.40;;;;;;;8.72;94.48;96491.50;4194800;28;20201;-86
2023/11/11 02:43:33;;;;;;;0.90;0.60;;;;;;;8.75;94.35;96498.19;4186347;28;20684;-87
2023/11/11 02:45:37;;;;;;;1.10;0.55;;;;;;;8.71;95.58;96500.22;4176950;28;20608;-86
2023/11/11 02:47:40;;;;;;;1.55;0.70;;;;;;;8.65;94.83;96500.75;4195400;28;20247;-86
2023/11/11 02:49:44;;;;;;;1.10;0.60;;;;;;;8.62;95.51;96497.63;4187403;28;20202;-86
2023/11/11 02:51:47;;;;;;;1.45;0.50;;;;;;;8.57;95.30;96505.00;4176369;28;20641;-86
2023/11/11 02:53:51;;;;;;;1.55;0.47;;;;;;;8.57;96.10;96505.81;4195235;28;20607;-86
2023/11/11 02:55:54;;;;;;;0.70;0.43;;;;;;;8.57;95.64;96531.78;4202726;28;20240;-86
2023/11/11 02:57:59;;;;;;;0.90;0.50;;;;;;;8.57;95.30;96520.59;4176456;28;20202;-87
2023/11/11 03:00:01;;;;;;;1.08;0.52;;;;;;;8.47;95.11;96530.91;4177078;28;20206;-87
2023/11/11 03:02:04;;;;;;;0.70;0.40;;;;;;;8.47;96.86;96556.06;4206862;28;20231;-87
2023/11/11 03:04:08;;;;;;;0.90;0.50;;;;;;;8.47;97.97;96561.28;4176060;28;20718;-86
2023/11/11 03:06:11;;;;;;;0.90;0.40;;;;;;;8.37;98.73;96562.16;4193210;28;20196;-87
2023/11/11 03:08:15;;;;;;;1.15;0.60;;;;;;;8.35;98.63;96572.69;4172253;28;20226;-85
2023/11/11 03:10:18;;;;;;;1.00;0.50;;;;;;;8.32;99.98;96579.91;4170051;28;20329;-86
2023/11/11 03:12:21;;;;;;;0.80;0.60;;;;;;;8.26;100.00;96598.59;4186066;28;20243;-86
2023/11/11 03:14:26;;;;;;;0.90;0.52;;;;;;;8.28;100.00;96599.28;4185851;28;20228;-87
2023/11/11 03:16:36;;;;;;;1.05;0.40;;;;;;;8.20;100.00;96609.50;4204751;28;21433;-86
2023/11/11 03:18:39;;;;;;;0.70;0.50;;;;;;;8.22;100.00;96612.78;4183776;28;20275;-87
2023/11/11 03:20:42;;;;;;;1.27;0.70;;;;;;;8.23;100.00;96617.03;4188055;28;20199;-87
2023/11/11 03:22:45;;;;;;;1.13;0.63;;;;;;;8.26;100.00;96615.00;4175373;28;20297;-86
2023/11/11 03:24:48;;;;;;;0.70;0.50;;;;;;;8.32;100.00;96611.09;4208633;28;20257;-86
2023/11/11 03:26:51;;;;;;;1.00;0.50;;;;;;;8.39;100.00;96630.38;4186204;28;20197;-86
2023/11/11 03:28:54;;;;;;;0.80;0.50;;;;;;;8.40;100.00;96619.88;4193912;28;20228;-86
2023/11/11 03:31:00;;;;;;;0.70;0.40;;;;;;;8.42;100.00;96630.13;4177169;28;20236;-86
2023/11/11 03:33:02;;;;;;;0.98;0.57;;;;;;;8.44;100.00;96635.06;4191726;28;20208;-86
2023/11/11 03:35:07;;;;;;;1.00;0.60;;;;;;;8.43;100.00;96629.19;4175350;28;20207;-86
2023/11/11 03:37:10;;;;;;;0.93;0.50;;;;;;;8.38;100.00;96633.94;4174860;28;20206;-86
2023/11/11 03:39:13;;;;;;;0.70;0.40;;;;;;;8.39;100.00;96640.78;4173742;28;20211;-87
2023/11/11 03:41:15;;;;;;;1.40;0.50;;;;;;;8.45;100.00;96652.31;4206978;28;20558;-86
2023/11/11 03:43:18;;;;;;;0.85;0.65;;;;;;;8.42;100.00;96643.97;4174987;28;20561;-86
2023/11/11 03:45:22;;;;;;;2.17;0.65;;;;;;;8.39;100.00;96644.22;4171224;28;20198;-86
2023/11/11 03:47:26;;;;;;;1.25;0.80;;;;;;;8.43;100.00;96631.78;4174622;28;20198;-86
2023/11/11 03:49:30;;;;;;;1.45;0.80;;;;;;;8.42;100.00;96646.56;4170155;28;20211;-86
2023/11/11 03:51:33;;;;;;;1.50;1.02;;;;;;;8.45;100.00;96644.53;4198861;28;20739;-87
2023/11/11 03:53:35;;;;;;;1.20;0.75;;;;;;;8.51;100.00;96653.59;4200808;28;20204;-86
2023/11/11 03:55:41;;;;;;;1.48;1.10;;;;;;;8.52;100.00;96656.06;4203943;28;20284;-86
2023/11/11 03:57:44;;;;;;;2.45;1.40;;;;;;;8.54;100.00;96664.53;4186996;28;20268;-86
2023/11/11 03:59:46;;;;;;;2.10;1.35;;;;;;;8.55;100.00;96663.59;4183847;28;20205;-86
2023/11/11 04:01:51;;;;;;;1.60;1.10;;;;;;;8.60;100.00;96656.25;4170741;28;20294;-86
2023/11/11 04:03:57;;;;;;;1.70;1.30;;;;;;;8.64;100.00;96674.97;4184752;28;20599;-86
2023/11/11 04:06:00;;;;;;;2.50;1.40;;;;;;;8.64;100.00;96677.59;4167453;28;20200;-86
2023/11/11 04:08:03;;;;;;;3.05;1.25;;;;;;;8.63;100.00;96675.94;4177782;28;20286;-87
2023/11/11 04:10:08;;;;;;;1.70;1.30;;;;;;;8.65;100.00;96677.47;4192620;28;20205;-86
2023/11/11 04:12:11;;;;;;;2.08;1.42;;;;;;;8.68;100.00;96686.78;4175817;28;20211;-87
2023/11/11 04:14:14;;;;;;;2.90;1.52;;;;;;;8.73;100.00;96687.22;4189962;28;20214;-87
2023/11/11 04:16:18;;;;;;;1.55;1.35;;;;;;;8.74;100.00;96684.50;4183173;28;20228;-87
2023/11/11 04:18:21;;;;;;;2.65;1.67;;;;;;;8.72;100.00;96702.00;4172119;28;20209;-86
2023/11/11 04:20:26;;;;;;;1.52;1.40;;;;;;;8.74;100.00;96707.88;4185781;28;20672;-86
2023/11/11 04:22:32;;;;;;;2.47;1.65;;;;;;;8.72;100.00;96701.16;4189113;28;20213;-86
2023/11/11 04:24:35;;;;;;;2.60;1.58;;;;;;;8.72;100.00;96712.38;4175421;28;20244;-87
2023/11/11 04:26:38;;;;;;;3.90;2.00;;;;;;;8.74;100.00;96725.25;4173184;28;20251;-87
2023/11/11 04:28:43;;;;;;;2.85;1.55;;;;;;;8.76;100.00;96734.56;4186004;28;20249;-86
2023/11/11 04:30:47;;;;;;;2.85;1.85;;;;;;;8.78;100.00;96742.22;4192274;28;20278;-86
2023/11/11 04:32:50;;;;;;;2.87;1.83;;;;;;;8.81;100.00;96740.22;4205002;28;20202;-86
2023/11/11 04:34:53;;;;;;;3.10;2.00;;;;;;;8.81;100.00;96749.78;4185720;28;20653;-86
2023/11/11 04:36:59;;;;;;;2.10;1.42;;;;;;;8.82;100.00;96752.25;4204811;28;20714;-87
2023/11/11 04:39:02;;;;;;;3.20;1.75;;;;;;;8.86;100.00;96771.03;4185487;28;20292;-87
2023/11/11 04:41:05;;;;;;;3.03;2.00;;;;;;;8.87;100.00;96764.84;4202046;28;20707;-87
2023/11/11 04:43:08;;;;;;;2.60;1.73;;;;;;;8.83;100.00;96768.69;4190918;28;20274;-87
2023/11/11 04:45:11;;;;;;;2.92;1.88;;;;;;;8.84;100.00;96780.72;4167088;28;20209;-87
2023/11/11 04:47:14;;;;;;;3.58;2.10;;;;;;;8.85;100.00;96782.38;4204654;28;20228;-87
2023/11/11 04:49:18;;;;;;;3.42;2.10;;;;;;;8.79;100.00;96782.88;4171521;28;20211;-87
2023/11/11 04:51:20;;;;;;;3.80;2.35;;;;;;;8.82;100.00;96790.41;4203498;28;20595;-87
2023/11/11 04:53:25;;;;;;;2.72;1.80;;;;;;;8.82;100.00;96798.22;4188906;28;20239;-86
2023/11/11 04:55:28;;;;;;;3.95;2.00;;;;;;;8.83;100.00;96799.88;4203459;28;20250;-86
2023/11/11 04:57:31;;;;;;;3.33;2.20;;;;;;;8.85;100.00;96800.56;4175706;28;20218;-86
2023/11/11 04:59:37;;;;;;;2.65;2.22;;;;;;;8.87;100.00;96815.09;4192012;28;20587;-87
2023/11/11 05:01:40;;;;;;;3.05;2.30;;;;;;;8.88;100.00;96815.91;4175874;28;20264;-87
2023/11/11 05:03:45;;;;;;;6.70;2.40;;;;;;;8.86;100.00;96820.41;4204569;28;20205;-87
2023/11/11 05:05:49;;;;;;;2.80;2.25;;;;;;;8.86;100.00;96825.63;4180188;28;20248;-87
2023/11/11 05:07:51;;;;;;;3.60;1.98;;;;;;;8.86;100.00;96830.81;4205870;28;20699;-87
2023/11/11 05:09:56;;;;;;;3.28;2.30;;;;;;;8.85;100.00;96831.75;4187905;28;20926;-87
2023/11/11 05:11:58;;;;;;;2.85;1.80;;;;;;;8.86;100.00;96829.03;4172991;28;20752;-86
2023/11/11 05:14:04;;;;;;;3.55;2.10;;;;;;;8.85;100.00;96839.56;4174230;28;20244;-86
2023/11/11 05:16:20;;;;;;;3.17;2.15;;;;;;;8.88;99.55;96841.91;4190773;28;20213;-87
2023/11/11 05:18:24;;;;;;;3.67;2.40;;;;;;;8.89;100.00;96843.56;4187222;28;20254;-86
2023/11/11 05:20:27;;;;;;;2.70;2.35;;;;;;;8.91;100.00;96849.47;4205188;28;20554;-87
2023/11/11 05:22:29;;;;;;;2.53;2.03;;;;;;;8.90;99.17;96848.66;4202015;28;20240;-87
2023/11/11 05:24:32;;;;;;;5.28;2.40;;;;;;;8.89;99.37;96853.97;4209436;28;20200;-87
2023/11/11 05:26:39;;;;;;;2.50;2.30;;;;;;;8.86;98.73;96855.03;4188033;28;20206;-87
2023/11/11 05:28:42;;;;;;;2.80;2.22;;;;;;;8.87;99.69;96856.69;4211293;28;20212;-87
2023/11/11 05:30:45;;;;;;;2.70;2.20;;;;;;;8.85;98.55;96847.34;4185823;28;20721;-86
2023/11/11 05:32:48;;;;;;;2.85;1.90;;;;;;;8.90;98.71;96859.03;4205493;28;20192;-87
2023/11/11 05:34:52;;;;;;;7.35;2.58;;;;;;;8.89;98.54;96880.78;4165764;28;20213;-87
2023/11/11 05:36:56;;;;;;;3.40;2.17;;;;;;;8.91;99.31;96878.06;4175352;28;20251;-87
2023/11/11 05:38:59;;;;;;;5.05;2.05;;;;;;;8.90;98.87;96884.19;4191939;28;20945;-86
2023/11/11 05:41:02;;;;;;;3.90;2.50;;;;;;;8.89;98.79;96891.19;4191865;28;20205;-86
2023/11/11 05:43:07;;;;;;;2.80;2.17;;;;;;;8.92;98.56;96900.50;4193057;28;20201;-86
2023/11/11 05:45:11;;;;;;;4.20;2.40;;;;;;;8.96;97.95;96898.34;4201635;28;20206;-87
2023/11/11 05:47:15;;;;;;;3.20;2.35;;;;;;;8.92;98.67;96905.72;4176887;28;20660;-86
2023/11/11 05:49:18;;;;;;;2.83;2.22;;;;;;;8.92;98.88;96909.94;4168864;28;20264;-87
2023/11/11 05:51:24;;;;;;;3.20;2.10;;;;;;;8.94;97.60;96908.06;4180478;28;20237;-88
2023/11/11 05:53:32;;;;;;;3.27;2.50;;;;;;;8.93;97.88;96921.19;4183315;28;20666;-87
2023/11/11 05:55:35;;;;;;;3.22;2.50;;;;;;;8.93;97.44;96927.22;4185887;28;20630;-87
2023/11/11 05:57:38;;;;;;;4.05;2.60;;;;;;;8.92;98.27;96931.72;4190822;28;20286;-87
2023/11/11 05:59:44;;;;;;;4.57;2.67;;;;;;;8.94;97.76;96944.47;4190197;28;20212;-87
2023/11/11 06:01:48;;;;;;;5.82;2.53;;;;;;;8.95;97.72;96948.69;4173557;28;21260;-87
2023/11/11 06:03:51;;;;;;;3.07;2.40;;;;;;;8.97;98.08;96952.00;4187671;28;20201;-87
2023/11/11 06:05:54;;;;;;;5.33;3.10;;;;;;;8.97;97.15;96951.16;4198654;28;20623;-87
2023/11/11 06:08:01;;;;;;;2.85;2.42;;;;;;;8.94;96.93;96954.88;4204375;28;20626;-87
2023/11/11 06:10:07;;;;;;;4.93;2.50;;;;;;;8.95;97.03;96964.28;4175367;28;20758;-87
2023/11/11 06:12:10;;;;;;;3.50;2.80;;;;;;;8.97;96.61;96966.78;4186702;28;20212;-87
2023/11/11 06:14:15;;;;;;;4.82;3.00;;;;;;;8.98;96.92;96979.66;4188392;28;20236;-87
2023/11/11 06:16:20;;;;;;;4.10;2.42;;;;;;;8.97;97.44;96977.16;4203030;28;20747;-86
2023/11/11 06:18:23;;;;;;;3.05;2.58;;;;;;;8.97;96.59;96987.56;4204504;28;20273;-86
2023/11/11 06:20:25;;;;;;;3.13;2.63;;;;;;;8.90;96.88;96985.59;4188795;28;20677;-86
2023/11/11 06:22:28;;;;;;;2.90;2.60;;;;;;;8.89;95.89;96994.34;4172674;28;20631;-87
2023/11/11 06:24:32;;;;;;;4.88;3.08;;;;;;;8.89;96.82;97000.38;4188294;28;20201;-86
2023/11/11 06:26:37;;;;;;;4.75;2.90;;;;;;;8.87;96.04;97004.88;4187558;28;20616;-87
2023/11/11 06:28:40;;;;;;;3.30;2.45;;;;;;;8.87;95.81;97001.41;4192731;28;20205;-86
2023/11/11 06:30:46;;;;;;;3.78;2.95;;;;;;;8.84;96.80;97006.88;4203911;28;20223;-86
2023/11/11 06:32:52;;;;;;;3.17;2.87;;;;;;;8.81;96.56;97013.16;4177199;28;20234;-87
2023/11/11 06:34:55;;;;;;;6.35;3.17;;;;;;;8.83;95.78;97024.25;4187501;28;20635;-86
2023/11/11 06:36:58;;;;;;;3.57;2.93;;;;;;;8.85;96.65;97024.13;4192989;28;20292;-87
2023/11/11 06:39:02;;;;;;;4.22;2.95;;;;;;;8.86;96.28;97020.59;4185128;28;20642;-86
2023/11/11 06:41:07;;;;;;;6.43;3.07;;;;;;;8.87;94.72;97030.00;4204297;28;20217;-87
2023/11/11 06:43:11;;;;;;;5.03;2.90;;;;;;;8.83;96.39;97036.41;4195118;28;20623;-87
2023/11/11 06:45:14;;;;;;;4.93;2.65;;;;;;;8.81;96.33;97027.91;4212197;28;20737;-86
2023/11/11 06:47:17;;;;;;;4.28;2.95;;;;;;;8.83;95.82;97032.03;4194493;28;20200;-87
2023/11/11 06:49:21;;;;;;;3.80;2.83;;;;;;;8.88;96.59;97042.91;4190009;28;20258;-87
2023/11/11 06:51:25;;;;;;;5.95;3.30;;;;;;;8.88;95.57;97039.47;4193105;28;20690;-87
2023/11/11 06:53:28;;;;;;;4.68;3.03;;;;;;;8.89;95.37;97036.75;4172685;28;20223;-86
2023/11/11 06:55:33;;;;;;;4.25;3.30;;;;;;;8.89;95.21;97041.16;4191973;28;20214;-86
2023/11/11 06:57:38;;;;;;;4.10;3.05;;;;;;;8.88;95.30;97052.47;4183626;28;20246;-87
2023/11/11 06:59:41;;;;;;;5.95;3.50;;;;;;;8.92;96.01;97054.72;4190607;28;20197;-87
2023/11/11 07:01:44;;;;;;;7.20;3.42;;;;;;;8.94;95.61;97053.66;4191519;28;20225;-86
2023/11/11 07:03:47;;;;;;;4.68;3.13;;;;;;;8.96;96.08;97058.75;4186841;28;20269;-87
2023/11/11 07:05:51;;;;;;;7.13;3.40;;;;;;;8.97;94.82;97068.19;4177519;28;20205;-86
2023/11/11 07:07:54;;;;;;;6.35;3.55;;;;;;;8.99;95.84;97064.53;4192074;28;20284;-87
2023/11/11 07:09:57;;;;;;;5.57;3.05;;;;;;;8.99;95.48;97064.53;4192973;28;20245;-87
2023/11/11 07:12:02;;;;;;;4.50;3.10;;;;;;;9.02;95.59;97068.63;4191766;28;20700;-87
2023/11/11 07:14:06;;;;;;;4.30;2.83;;;;;;;9.02;94.07;97069.47;4199079;28;20297;-87
2023/11/11 07:16:10;;;;;;;5.47;3.15;;;;;;;8.99;95.00;97080.13;4196071;28;20319;-87
2023/11/11 07:18:13;;;;;;;3.30;2.97;;;;;;;9.01;95.56;97083.41;4207601;28;20926;-86
2023/11/11 07:20:18;;;;;;;3.33;2.60;;;;;;;9.01;94.66;97091.22;4181757;28;20320;-87
2023/11/11 07:22:22;;;;;;;4.70;3.13;;;;;;;9.01;95.49;97099.03;4187547;28;20292;-87
2023/11/11 07:24:29;;;;;;;4.28;3.03;;;;;;;9.01;96.16;97093.00;4176947;28;20627;-87
2023/11/11 07:26:32;;;;;;;4.25;2.85;;;;;;;8.98;96.01;97109.66;4186541;28;20233;-86
2023/11/11 07:28:35;;;;;;;6.40;3.45;;;;;;;8.96;96.88;97097.75;4204544;28;20715;-87
2023/11/11 07:30:39;;;;;;;3.60;3.05;;;;;;;8.95;96.79;97112.50;4188570;28;20430;-87
2023/11/11 07:32:44;;;;;;;3.10;2.80;;;;;;;8.94;97.26;97113.47;4208421;28;20212;-87
2023/11/11 07:35:02;;;;;;;3.72;3.30;;;;;;;8.95;96.90;97112.50;4187158;28;20224;-86
2023/11/11 07:37:06;;;;;;;4.18;3.42;;;;;;;8.92;97.37;97108.50;4193554;28;20251;-87
2023/11/11 07:39:13;;;;;;;4.20;3.30;;;;;;;8.92;97.93;97108.50;4188693;28;20230;-88
2023/11/11 07:41:19;;;;;;;5.95;3.25;;;;;;;8.92;98.21;97117.13;4205247;28;20196;-87
2023/11/11 07:43:22;;;;;;;4.00;3.47;;;;;;;8.94;98.31;97116.06;4184435;28;20664;-87
2023/11/11 07:45:26;;;;;;;7.10;3.67;;;;;;;8.96;97.51;97124.56;4189050;28;20308;-87
2023/11/11 07:47:29;;;;;;;5.93;3.85;;;;;;;8.99;97.25;97123.47;4191377;28;20262;-87
2023/11/11 07:49:32;;;;;;;5.93;3.67;;;;;;;8.98;98.19;97133.06;4177221;28;20735;-87
2023/11/11 07:51:36;;;;;;;5.10;3.40;;;;;;;8.93;98.27;97132.59;4190874;28;20208;-87
2023/11/11 07:53:39;;;;;;;4.70;3.65;;;;;;;8.93;97.78;97126.59;4168596;28;20665;-87
2023/11/11 07:55:43;;;;;;;5.43;4.03;;;;;;;8.91;98.19;97130.22;4188245;28;20209;-86
2023/11/11 07:57:47;;;;;;;3.72;3.33;;;;;;;8.92;97.91;97136.13;4181751;28;20200;-86
2023/11/11 07:59:53;;;;;;;5.50;3.65;;;;;;;8.95;97.02;97141.09;4193703;28;20251;-86
2023/11/11 08:01:57;;;;;;;5.22;3.50;;;;;;;8.95;97.17;97146.31;4206432;28;20209;-86
2023/11/11 08:04:00;;;;;;;4.22;3.50;;;;;;;8.97;96.98;97141.78;4203663;28;20275;-86
2023/11/11 08:06:05;;;;;;;5.00;3.72;;;;;;;9.00;97.86;97151.16;4204696;28;20212;-86
2023/11/11 08:08:08;;;;;;;5.00;3.75;;;;;;;9.03;96.98;97156.94;4186030;28;20220;-86
2023/11/11 08:10:19;;;;;;;9.40;3.67;;;;;;;8.97;96.99;97157.41;4170014;28;20213;-87
2023/11/11 08:12:23;;;;;;;5.93;3.80;;;;;;;8.93;97.07;97162.97;4175540;28;20238;-86
2023/11/11 08:14:27;;;;;;;5.40;3.63;;;;;;;8.92;95.71;97164.72;4209699;28;20258;-87
2023/11/11 08:16:30;;;;;;;7.00;4.03;;;;;;;8.92;96.67;97166.53;4175476;28;20621;-87
2023/11/11 08:18:34;;;;;;;6.80;3.95;;;;;;;8.91;96.56;97174.44;4204292;28;20269;-87
2023/11/11 08:20:50;;;;;;;5.28;3.55;;;;;;;8.92;96.50;97184.72;4200837;28;20545;-87
2023/11/11 08:22:53;;;;;;;5.00;3.50;;;;;;;8.91;96.96;97183.06;4205680;28;20208;-87
2023/11/11 08:24:57;;;;;;;6.15;3.65;;;;;;;8.93;97.82;97181.19;4186875;28;20201;-88
2023/11/11 08:27:01;;;;;;;6.18;4.03;;;;;;;8.90;96.54;97175.38;4184143;28;20229;-87
2023/11/11 08:29:06;;;;;;;5.53;3.92;;;;;;;8.89;96.89;97197.13;4177298;28;20297;-88
2023/11/11 08:31:09;;;;;;;5.18;4.05;;;;;;;8.89;96.09;97186.72;4181355;28;20320;-86
2023/11/11 08:33:12;;;;;;;5.60;3.70;;;;;;;8.90;96.23;97201.38;4186598;28;20276;-85
2023/11/11 08:35:15;;;;;;;5.75;3.80;;;;;;;8.92;96.57;97191.69;4186286;28;20209;-87
2023/11/11 08:37:19;;;;;;;6.35;4.05;;;;;;;8.92;96.75;97201.13;4189627;28;20844;-86
2023/11/11 08:39:24;;;;;;;4.97;4.00;;;;;;;8.95;95.68;97198.31;4190987;28;20252;-87
2023/11/11 08:41:28;;;;;;;5.30;3.60;;;;;;;8.97;96.05;97200.78;4188881;28;20221;-86
2023/11/11 08:43:31;;;;;;;7.97;4.45;;;;;;;8.99;95.28;97204.09;4190979;28;20251;-85
2023/11/11 08:45:36;;;;;;;6.78;5.38;;;;;;;9.01;96.15;97210.03;4189110;28;20198;-84
2023/11/11 08:47:39;;;;;;;5.65;4.30;;;;;;;9.01;96.50;97208.25;4175195;28;20222;-86
2023/11/11 08:49:43;;;;;;;8.25;4.90;;;;;;;9.02;94.97;97211.66;4175410;28;20736;-85
2023/11/11 08:51:48;;;;;;;6.03;4.50;;;;;;;9.00;95.25;97214.38;4188827;28;20255;-85
2023/11/11 08:53:51;;;;;;;6.07;4.20;;;;;;;9.02;95.22;97211.66;4169433;28;20606;-86
2023/11/11 08:55:55;;;;;;;7.47;5.80;;;;;;;9.00;94.40;97208.34;4185130;28;20258;-84
2023/11/11 08:57:58;;;;;;;5.03;3.92;;;;;;;9.02;94.21;97209.91;4205112;28;20312;-85
2023/11/11 09:00:05;;;;;;;6.35;4.28;;;;;;;9.07;94.10;97220.78;4178401;28;20225;-85
2023/11/11 09:02:10;;;;;;;4.70;3.27;;;;;;;9.09;93.96;97226.69;4173691;28;20202;-85
2023/11/11 09:04:13;;;;;;;7.50;3.80;;;;;;;9.12;93.85;97221.25;4185949;28;20717;-84
2023/11/11 09:06:17;;;;;;;5.53;4.40;;;;;;;9.15;93.62;97231.41;4177580;28;20633;-87
2023/11/11 09:08:20;;;;;;;7.80;3.67;;;;;;;9.17;94.33;97232.16;4166481;28;20636;-86
2023/11/11 09:10:26;;;;;;;4.45;3.50;;;;;;;9.19;94.17;97238.06;4186114;28;21043;-84
2023/11/11 09:12:29;;;;;;;5.10;4.00;;;;;;;9.21;93.22;97241.34;4207498;28;20196;-84
2023/11/11 09:14:33;;;;;;;3.88;3.47;;;;;;;9.23;92.59;97239.47;4183584;28;20198;-85
2023/11/11 09:16:38;;;;;;;7.15;3.50;;;;;;;9.24;92.48;97238.50;4188471;28;20301;-85
2023/11/11 09:18:47;;;;;;;5.68;3.28;;;;;;;9.25;91.81;97239.38;4175083;28;20209;-87
2023/11/11 09:20:50;;;;;;;5.75;4.25;;;;;;;9.30;92.67;97243.25;4162471;28;20797;-85
2023/11/11 09:22:53;;;;;;;4.50;3.95;;;;;;;9.37;93.37;97252.25;4181694;28;20670;-85
2023/11/11 09:24:56;;;;;;;4.73;3.70;;;;;;;9.44;92.93;97251.66;4173111;28;20209;-85
2023/11/11 09:26:59;;;;;;;4.63;3.80;;;;;;;9.48;91.23;97247.84;4166203;28;20751;-85
2023/11/11 09:29:06;;;;;;;5.22;3.45;;;;;;;9.53;90.65;97255.31;4184779;28;20202;-85
2023/11/11 09:31:12;;;;;;;4.63;3.60;;;;;;;9.59;90.50;97250.47;4195560;28;20621;-85
2023/11/11 09:33:16;;;;;;;5.47;3.13;;;;;;;9.62;91.23;97258.06;4188960;28;20213;-85
2023/11/11 09:35:21;;;;;;;4.93;3.60;;;;;;;9.69;91.04;97258.38;4188031;28;20248;-84
2023/11/11 09:37:24;;;;;;;6.00;3.58;;;;;;;9.73;90.74;97260.63;4205822;28;20715;-84
2023/11/11 09:39:27;;;;;;;3.90;3.17;;;;;;;9.75;89.29;97260.50;4185653;28;20221;-85
2023/11/11 09:41:32;;;;;;;5.50;3.40;;;;;;;9.78;89.15;97258.50;4202134;28;20635;-85
2023/11/11 09:43:35;;;;;;;6.37;3.30;;;;;;;9.81;89.35;97257.44;4192281;28;20627;-89
2023/11/11 09:45:39;;;;;;;4.10;3.33;;;;;;;9.85;89.04;97254.47;4204494;28;20688;-86
2023/11/11 09:47:44;;;;;;;4.00;3.37;;;;;;;9.85;87.25;97252.69;4183026;28;20217;-87